Time;durP1;ratioP1;P1;durP2;ratioP2;P2;SDS_P1;SDS_P2;PMS_P1;PMS_P2;Temp;Humidity;BMP_temperature;BMP_pressure;BME280_temperature;BME280_humidity;BME280_pressure;Samples;Min_cycle;Max_cycle;Signal;HPM_P1;HPM_P2
2022/12/10 00:01:29;;;;;;;60.47;37.20;;;0.30;99.90;;;;;;5115430;28;20483;-80
2022/12/10 00:03:55;;;;;;;62.85;35.92;;;0.30;99.90;;;;;;5114844;28;20044;-80
2022/12/10 00:06:25;;;;;;;71.45;37.42;;;0.30;99.90;;;;;;5115300;28;20058;-79
2022/12/10 00:08:51;;;;;;;63.33;38.05;;;0.30;99.90;;;;;;5115496;28;20047;-79
2022/12/10 00:11:18;;;;;;;67.50;38.38;;;0.40;99.90;;;;;;5116004;28;20126;-79
2022/12/10 00:13:45;;;;;;;69.55;37.38;;;0.40;99.90;;;;;;5114216;28;20071;-80
2022/12/10 00:16:13;;;;;;;65.07;38.65;;;0.50;99.90;;;;;;5115627;28;20138;-79
2022/12/10 00:18:40;;;;;;;68.57;38.47;;;0.60;99.90;;;;;;5115377;28;20040;-79
2022/12/10 00:21:08;;;;;;;62.92;36.33;;;0.30;99.90;;;;;;5114620;28;20052;-79
2022/12/10 00:23:34;;;;;;;64.97;37.47;;;0.40;99.90;;;;;;5115155;28;20074;-79
2022/12/10 00:26:06;;;;;;;64.93;37.13;;;0.60;99.90;;;;;;5114846;28;20047;-79
2022/12/10 00:28:32;;;;;;;69.00;38.55;;;0.40;99.90;;;;;;5115124;28;20122;-79
2022/12/10 00:31:06;;;;;;;65.28;37.55;;;0.40;99.90;;;;;;5114497;28;20039;-80
2022/12/10 00:33:31;;;;;;;58.58;36.20;;;0.40;99.90;;;;;;5115217;28;20040;-79
2022/12/10 00:36:04;;;;;;;65.10;38.17;;;0.50;99.90;;;;;;5115367;27;20239;-79
2022/12/10 00:38:31;;;;;;;62.20;36.72;;;0.50;99.90;;;;;;5115298;28;20043;-79
2022/12/10 00:40:57;;;;;;;62.08;36.63;;;0.40;99.90;;;;;;5115442;28;20122;-79
2022/12/10 00:43:22;;;;;;;62.63;38.17;;;0.50;99.90;;;;;;5115111;28;20509;-79
2022/12/10 00:45:48;;;;;;;62.97;36.83;;;0.50;99.90;;;;;;5114839;28;20047;-80
2022/12/10 00:48:14;;;;;;;64.47;37.33;;;0.50;99.90;;;;;;5114176;28;20058;-80
2022/12/10 00:50:39;;;;;;;68.83;37.97;;;0.50;99.90;;;;;;5114775;28;20387;-79
2022/12/10 00:53:05;;;;;;;70.50;39.53;;;0.50;99.90;;;;;;5114995;28;20044;-79
2022/12/10 00:55:31;;;;;;;66.13;38.43;;;0.70;99.90;;;;;;5115011;28;20055;-79
2022/12/10 00:57:56;;;;;;;67.93;39.60;;;0.50;99.90;;;;;;5114488;28;20079;-79
2022/12/10 01:00:23;;;;;;;66.80;39.70;;;0.60;99.90;;;;;;5114695;28;20453;-79
2022/12/10 01:02:48;;;;;;;63.72;36.88;;;0.70;99.90;;;;;;5113552;28;20044;-79
2022/12/10 01:05:14;;;;;;;68.60;39.63;;;0.60;99.90;;;;;;5113610;28;20159;-79
2022/12/10 01:07:40;;;;;;;70.97;37.83;;;0.60;99.90;;;;;;5112062;28;20507;-79
2022/12/10 01:10:05;;;;;;;67.53;40.50;;;0.60;99.90;;;;;;5114691;28;20050;-79
2022/12/10 01:12:31;;;;;;;74.33;40.63;;;0.60;99.90;;;;;;5114679;28;20511;-79
2022/12/10 01:14:57;;;;;;;68.33;39.37;;;0.50;99.90;;;;;;5113305;28;20097;-79
2022/12/10 01:17:22;;;;;;;69.73;40.83;;;0.70;99.90;;;;;;5113750;28;20047;-79
2022/12/10 01:19:48;;;;;;;72.63;38.70;;;0.70;99.90;;;;;;5114194;28;20040;-79
2022/12/10 01:22:14;;;;;;;68.87;38.43;;;0.50;99.90;;;;;;5114446;28;20044;-79
2022/12/10 01:24:40;;;;;;;65.67;37.67;;;0.70;99.90;;;;;;5114036;28;20083;-79
2022/12/10 01:27:05;;;;;;;72.83;37.97;;;0.60;99.90;;;;;;5113533;28;20054;-79
2022/12/10 01:29:31;;;;;;;66.47;36.60;;;0.60;99.90;;;;;;5113191;28;20043;-79
2022/12/10 01:31:57;;;;;;;65.03;38.67;;;0.60;99.90;;;;;;5113943;28;20836;-79
2022/12/10 01:34:24;;;;;;;70.13;38.92;;;0.60;99.90;;;;;;5112872;28;20055;-79
2022/12/10 01:36:53;;;;;;;63.00;37.47;;;0.60;99.90;;;;;;5095979;28;20051;-79
2022/12/10 01:39:20;;;;;;;64.72;37.22;;;0.70;99.90;;;;;;5114020;28;20040;-79
2022/12/10 01:41:55;;;;;;;70.20;38.90;;;0.70;99.90;;;;;;5112478;28;20048;-79
2022/12/10 01:44:21;;;;;;;66.03;35.67;;;0.70;99.90;;;;;;5114236;28;20449;-80
2022/12/10 01:46:49;;;;;;;65.60;36.67;;;0.70;99.90;;;;;;5129815;27;20185;-79
2022/12/10 01:49:21;;;;;;;67.03;38.42;;;0.70;99.90;;;;;;5112801;28;20479;-79
2022/12/10 01:51:49;;;;;;;68.57;39.30;;;0.70;99.90;;;;;;5078808;28;20101;-79
2022/12/10 01:54:38;;;;;;;65.50;38.35;;;0.70;99.90;;;;;;5112631;28;20079;-79
2022/12/10 01:57:08;;;;;;;67.07;36.90;;;0.60;99.90;;;;;;5112925;28;20108;-79
2022/12/10 01:59:35;;;;;;;68.30;36.80;;;0.60;99.90;;;;;;5113703;28;20052;-79
2022/12/10 02:02:18;;;;;;;65.32;36.85;;;0.60;99.90;;;;;;5112531;28;20055;-80
2022/12/10 02:05:09;;;;;;;62.17;36.65;;;0.50;99.90;;;;;;5113650;28;20464;-79
2022/12/10 02:08:02;;;;;;;62.92;36.00;;;0.40;99.90;;;;;;5113831;28;20514;-80
2022/12/10 02:11:13;;;;;;;64.28;37.53;;;0.40;99.90;;;;;;5112562;28;20052;-80
2022/12/10 02:14:04;;;;;;;70.28;37.28;;;0.30;99.90;;;;;;5090377;28;20398;-79
2022/12/10 02:16:39;;;;;;;66.30;36.78;;;0.30;99.90;;;;;;5112897;28;20055;-79
2022/12/10 02:19:20;;;;;;;;;;;0.20;99.90;;;;;;5113424;28;20162;-79
2022/12/10 02:21:49;;;;;;;66.28;36.90;;;0.30;99.90;;;;;;5113319;28;19923;-79
2022/12/10 02:24:22;;;;;;;64.60;37.60;;;0.30;99.90;;;;;;5112530;28;20052;-79
2022/12/10 02:26:51;;;;;;;67.50;38.33;;;0.40;99.90;;;;;;5112403;28;20376;-79
2022/12/10 02:29:18;;;;;;;67.82;37.17;;;0.30;99.90;;;;;;5113454;28;20047;-79
2022/12/10 02:31:47;;;;;;;61.15;36.20;;;0.30;99.90;;;;;;5112169;28;20047;-79
2022/12/10 02:34:16;;;;;;;63.22;36.13;;;0.20;99.90;;;;;;5113485;28;20101;-79
2022/12/10 02:36:44;;;;;;;62.00;36.75;;;0.20;99.90;;;;;;5113419;28;20047;-79
2022/12/10 02:39:13;;;;;;;64.13;37.45;;;0.10;99.90;;;;;;5113019;28;20047;-79
2022/12/10 02:41:43;;;;;;;68.35;38.05;;;0.10;99.90;;;;;;5113313;28;20051;-79
2022/12/10 02:44:12;;;;;;;72.32;38.28;;;0.00;99.90;;;;;;5112988;28;20039;-79
2022/12/10 02:46:41;;;;;;;62.22;36.50;;;0.00;99.90;;;;;;5113496;28;20054;-80
2022/12/10 02:49:08;;;;;;;60.83;35.60;;;0.00;99.90;;;;;;5113116;28;20050;-80
2022/12/10 02:51:33;;;;;;;70.93;38.47;;;0.00;99.90;;;;;;5113217;28;20043;-80
2022/12/10 02:54:07;;;;;;;64.40;38.13;;;0.00;99.90;;;;;;5111860;28;20051;-80
2022/12/10 02:56:54;;;;;;;66.65;37.65;;;-0.10;99.90;;;;;;5113526;28;20048;-80
2022/12/10 02:59:32;;;;;;;63.42;36.03;;;-0.10;99.90;;;;;;5113222;28;20040;-79
2022/12/10 03:02:05;;;;;;;63.25;36.38;;;0.00;99.90;;;;;;5112074;28;20051;-79
2022/12/10 03:04:50;;;;;;;64.30;36.25;;;0.00;99.90;;;;;;5113158;28;20086;-79
2022/12/10 03:07:36;;;;;;;66.78;37.40;;;0.10;99.90;;;;;;5111587;28;20060;-79
2022/12/10 03:10:25;;;;;;;63.92;36.85;;;0.10;99.90;;;;;;5112856;28;20174;-79
2022/12/10 03:12:58;;;;;;;65.57;37.53;;;0.10;99.90;;;;;;5112921;28;20141;-80
2022/12/10 03:15:25;;;;;;;68.38;39.10;;;0.10;99.90;;;;;;5112078;28;20056;-79
2022/12/10 03:17:52;;;;;;;69.03;39.17;;;0.20;99.90;;;;;;5113232;28;20090;-80
2022/12/10 03:20:18;;;;;;;63.33;36.70;;;0.10;99.90;;;;;;5112767;28;20538;-80
2022/12/10 03:22:47;;;;;;;60.47;36.47;;;0.10;99.90;;;;;;5113131;28;20160;-79
2022/12/10 03:25:17;;;;;;;63.22;36.97;;;0.10;99.90;;;;;;5112753;28;20043;-80
2022/12/10 03:27:45;;;;;;;68.35;39.80;;;0.20;99.90;;;;;;5112999;28;20391;-80
2022/12/10 03:30:11;;;;;;;64.97;37.20;;;0.20;99.90;;;;;;5113581;28;20043;-80
2022/12/10 03:32:37;;;;;;;64.53;36.60;;;0.10;99.90;;;;;;5116533;28;20047;-79
2022/12/10 03:35:05;;;;;;;66.10;37.60;;;0.10;99.90;;;;;;5115048;28;20069;-79
2022/12/10 03:37:32;;;;;;;63.20;36.40;;;0.20;99.90;;;;;;5116394;28;20044;-79
2022/12/10 03:39:58;;;;;;;67.32;38.80;;;0.20;99.90;;;;;;5116191;28;20050;-80
2022/12/10 03:42:24;;;;;;;74.45;39.75;;;0.50;99.90;;;;;;5116896;28;20042;-80
2022/12/10 03:44:51;;;;;;;69.93;39.30;;;0.30;99.90;;;;;;5116437;28;20123;-80
2022/12/10 03:47:17;;;;;;;75.78;39.20;;;0.20;99.90;;;;;;5115004;28;20043;-80
2022/12/10 03:49:43;;;;;;;76.68;39.05;;;0.20;99.90;;;;;;5114997;28;20532;-80
2022/12/10 03:52:10;;;;;;;76.20;41.22;;;0.30;99.90;;;;;;5116026;28;20051;-80
2022/12/10 03:54:35;;;;;;;95.03;41.67;;;0.30;99.90;;;;;;5115844;28;20390;-80
2022/12/10 03:57:01;;;;;;;76.50;40.03;;;0.30;99.90;;;;;;5114732;28;20052;-80
2022/12/10 03:59:27;;;;;;;85.70;41.67;;;0.30;99.90;;;;;;5115995;28;20071;-80
2022/12/10 04:01:53;;;;;;;87.10;42.43;;;0.30;99.90;;;;;;5115862;28;20395;-80
2022/12/10 04:04:19;;;;;;;89.15;41.63;;;0.40;99.90;;;;;;5115674;28;20055;-80
2022/12/10 04:06:44;;;;;;;115.83;42.27;;;0.40;99.90;;;;;;5116114;28;20060;-80
2022/12/10 04:09:12;;;;;;;111.20;41.83;;;0.60;99.90;;;;;;5115626;28;20050;-80
2022/12/10 04:11:38;;;;;;;99.32;41.88;;;0.40;99.90;;;;;;5115838;28;20140;-80
2022/12/10 04:16:48;;;;;;;96.65;41.85;;;0.40;99.90;;;;;;5115803;28;20138;-80
2022/12/10 04:19:16;;;;;;;95.63;40.97;;;0.40;99.90;;;;;;5115348;27;20174;-81
2022/12/10 04:27:25;;;;;;;116.00;41.95;;;0.50;99.90;;;;;;5115368;27;20461;-80
2022/12/10 04:29:53;;;;;;;166.75;44.85;;;0.50;99.90;;;;;;5115490;28;20086;-80
2022/12/10 04:32:19;;;;;;;141.77;42.60;;;0.60;99.90;;;;;;5115212;28;20043;-79
2022/12/10 04:34:45;;;;;;;129.18;42.47;;;0.80;99.90;;;;;;5114947;28;20508;-79
2022/12/10 04:37:12;;;;;;;179.10;43.70;;;0.50;99.90;;;;;;5115097;28;20066;-80
2022/12/10 04:39:38;;;;;;;134.02;41.78;;;0.50;99.90;;;;;;5115203;27;20100;-80
2022/12/10 04:42:04;;;;;;;102.25;41.17;;;0.60;99.90;;;;;;5096903;28;20086;-80
2022/12/10 04:44:30;;;;;;;118.20;42.17;;;0.50;99.90;;;;;;5115242;27;20082;-80
2022/12/10 04:46:55;;;;;;;182.20;42.10;;;0.60;99.90;;;;;;5097329;28;20062;-80
2022/12/10 04:49:21;;;;;;;260.30;44.27;;;0.60;99.90;;;;;;5114810;27;20040;-80
2022/12/10 04:51:47;;;;;;;143.27;44.23;;;0.50;99.90;;;;;;5114044;28;20047;-80
2022/12/10 04:54:13;;;;;;;144.20;41.93;;;0.50;99.90;;;;;;5114807;28;20134;-80
2022/12/10 04:56:39;;;;;;;114.10;43.10;;;0.50;99.90;;;;;;5115279;28;20491;-80
2022/12/10 04:59:06;;;;;;;166.13;44.65;;;0.50;99.90;;;;;;5114591;28;20050;-80
2022/12/10 05:01:32;;;;;;;156.25;42.08;;;0.60;99.90;;;;;;5113856;28;20394;-80
2022/12/10 05:04:04;;;;;;;151.57;42.42;;;0.60;99.90;;;;;;5114819;28;20054;-79
2022/12/10 05:06:30;;;;;;;108.05;40.45;;;0.50;99.90;;;;;;5113560;28;20415;-80
2022/12/10 05:08:56;;;;;;;163.82;42.70;;;0.60;99.90;;;;;;5114718;28;20055;-80
2022/12/10 05:11:24;;;;;;;188.73;44.58;;;0.60;99.90;;;;;;5113460;28;20105;-80
2022/12/10 05:13:50;;;;;;;176.00;43.22;;;0.70;99.90;;;;;;5113432;28;20139;-80
2022/12/10 05:16:17;;;;;;;117.00;41.77;;;0.60;99.90;;;;;;5114326;28;20118;-80
2022/12/10 05:18:43;;;;;;;168.95;44.38;;;0.70;99.90;;;;;;5114390;28;20036;-79
2022/12/10 05:21:19;;;;;;;160.40;44.13;;;0.60;99.90;;;;;;5112994;28;20039;-80
2022/12/10 05:23:46;;;;;;;;;;;0.70;99.90;;;;;;5114924;28;20057;-79
2022/12/10 05:26:14;;;;;;;110.32;38.47;;;0.70;99.90;;;;;;5114108;28;19919;-79
2022/12/10 05:28:46;;;;;;;201.48;42.97;;;0.70;99.90;;;;;;5113386;28;20418;-79
2022/12/10 05:31:23;;;;;;;245.15;42.78;;;0.70;99.90;;;;;;5113124;28;20094;-80
2022/12/10 05:33:49;;;;;;;145.93;38.78;;;0.70;99.90;;;;;;5114587;28;20108;-79
2022/12/10 05:36:18;;;;;;;151.68;41.55;;;0.70;99.90;;;;;;5113884;28;20036;-79
2022/12/10 05:38:44;;;;;;;175.07;43.08;;;0.80;99.90;;;;;;5113980;28;20048;-80
2022/12/10 05:41:15;;;;;;;121.43;40.90;;;0.70;99.90;;;;;;5112923;28;20046;-79
2022/12/10 05:43:42;;;;;;;258.58;41.90;;;0.80;99.90;;;;;;5114326;28;20083;-79
2022/12/10 05:46:11;;;;;;;135.02;40.22;;;0.80;99.90;;;;;;5114082;28;20052;-79
2022/12/10 05:48:38;;;;;;;150.63;39.70;;;0.80;99.90;;;;;;5104993;28;20148;-79
2022/12/10 05:51:11;;;;;;;140.00;38.05;;;0.80;99.90;;;;;;5093718;28;20407;-79
2022/12/10 05:53:37;;;;;;;147.77;41.10;;;1.00;99.90;;;;;;5093142;28;20048;-80
2022/12/10 05:56:07;;;;;;;174.43;39.53;;;0.70;99.90;;;;;;5093501;28;20063;-79
2022/12/10 05:58:33;;;;;;;242.55;42.03;;;0.80;99.90;;;;;;5092111;28;20434;-80
2022/12/10 06:00:59;;;;;;;163.98;38.90;;;1.80;99.90;;;;;;5093445;28;20044;-79
2022/12/10 06:03:27;;;;;;;184.47;43.07;;;2.00;99.90;;;;;;5093199;28;20044;-79
2022/12/10 06:05:53;;;;;;;190.52;41.42;;;0.90;99.90;;;;;;5093345;28;20658;-79
2022/12/10 06:08:19;;;;;;;209.23;40.15;;;0.60;99.90;;;;;;5091556;28;20139;-79
2022/12/10 06:10:45;;;;;;;173.87;40.20;;;0.90;99.90;;;;;;5093586;28;20181;-79
2022/12/10 06:13:10;;;;;;;131.87;36.63;;;0.90;99.90;;;;;;5092214;28;20134;-80
2022/12/10 06:15:40;;;;;;;267.40;44.30;;;1.40;99.90;;;;;;5092643;28;20474;-80
2022/12/10 06:18:06;;;;;;;151.65;38.10;;;0.90;99.90;;;;;;5091951;28;20495;-79
2022/12/10 06:20:31;;;;;;;200.27;40.25;;;0.90;99.90;;;;;;5091604;28;20083;-79
2022/12/10 06:22:57;;;;;;;114.00;34.93;;;0.90;99.90;;;;;;5093123;28;20073;-80
2022/12/10 06:25:23;;;;;;;263.53;36.47;;;0.90;99.90;;;;;;5092864;28;20048;-80
2022/12/10 06:27:49;;;;;;;113.33;33.60;;;0.90;99.90;;;;;;5093112;28;20048;-79
2022/12/10 06:30:15;;;;;;;107.80;34.47;;;0.90;99.90;;;;;;5092914;28;20278;-80
2022/12/10 06:32:42;;;;;;;121.93;32.73;;;0.90;99.90;;;;;;5093105;28;20044;-79
2022/12/10 06:35:09;;;;;;;183.68;37.05;;;1.50;99.90;;;;;;5093065;28;20040;-79
2022/12/10 06:37:36;;;;;;;103.53;33.60;;;1.00;99.90;;;;;;5092742;28;20472;-79
2022/12/10 06:40:02;;;;;;;151.25;34.75;;;0.90;99.90;;;;;;5091736;28;20052;-79
2022/12/10 06:42:27;;;;;;;152.68;35.92;;;1.00;99.90;;;;;;5091847;28;20113;-79
2022/12/10 06:44:53;;;;;;;124.63;33.73;;;1.10;99.90;;;;;;5093033;28;20484;-80
2022/12/10 06:47:19;;;;;;;142.20;36.27;;;1.00;99.90;;;;;;5092640;28;20462;-80
2022/12/10 06:49:44;;;;;;;166.20;38.70;;;1.00;99.90;;;;;;5092987;28;20032;-79
2022/12/10 06:52:10;;;;;;;274.50;41.03;;;1.00;99.90;;;;;;5091912;28;20139;-80
2022/12/10 06:54:36;;;;;;;126.67;30.43;;;0.90;99.90;;;;;;5092733;28;20462;-80
2022/12/10 06:57:02;;;;;;;136.07;31.63;;;0.90;99.90;;;;;;5091731;28;20051;-80
2022/12/10 06:59:27;;;;;;;180.17;30.47;;;0.90;99.90;;;;;;5092549;28;20100;-80
2022/12/10 07:01:53;;;;;;;162.13;27.70;;;0.90;99.90;;;;;;5093039;28;20043;-80
2022/12/10 07:04:19;;;;;;;115.77;28.30;;;0.90;99.90;;;;;;5092623;28;20170;-80
2022/12/10 07:06:44;;;;;;;170.13;28.73;;;0.90;99.90;;;;;;5094992;28;20048;-79
2022/12/10 07:09:10;;;;;;;145.63;29.60;;;0.90;99.90;;;;;;5096658;28;20502;-81
2022/12/10 07:11:36;;;;;;;131.27;28.37;;;0.90;99.90;;;;;;5095363;28;20077;-81
2022/12/10 07:14:02;;;;;;;165.97;28.07;;;0.70;99.90;;;;;;5095586;28;20313;-81
2022/12/10 07:16:30;;;;;;;116.80;26.73;;;1.20;99.90;;;;;;5096273;28;20131;-81
2022/12/10 07:18:58;;;;;;;173.07;28.73;;;1.00;99.90;;;;;;5095270;28;20302;-81
2022/12/10 07:21:28;;;;;;;204.63;28.13;;;0.90;99.90;;;;;;5095943;28;20056;-81
2022/12/10 07:23:57;;;;;;;141.40;25.60;;;0.90;99.90;;;;;;5095410;28;20139;-82
2022/12/10 07:26:24;;;;;;;150.85;27.02;;;1.10;99.90;;;;;;5078197;28;20064;-81
2022/12/10 07:28:50;;;;;;;154.25;26.13;;;1.00;99.90;;;;;;5095939;28;20040;-82
2022/12/10 07:31:16;;;;;;;91.82;24.35;;;0.90;99.90;;;;;;5096329;28;20051;-80
2022/12/10 07:33:42;;;;;;;137.90;27.07;;;0.90;99.90;;;;;;5094738;28;20043;-82
2022/12/10 07:36:10;;;;;;;196.45;35.47;;;0.80;99.90;;;;;;5095831;28;20102;-82
2022/12/10 07:38:36;;;;;;;125.30;26.88;;;0.90;99.90;;;;;;5095715;28;20044;-82
2022/12/10 07:41:08;;;;;;;134.63;23.75;;;0.80;99.90;;;;;;5094942;28;20145;-81
2022/12/10 07:43:34;;;;;;;193.60;27.58;;;0.90;99.90;;;;;;5095741;28;20052;-81
2022/12/10 07:46:13;;;;;;;166.27;25.05;;;0.80;99.90;;;;;;5077820;28;20449;-84
2022/12/10 07:48:40;;;;;;;178.57;24.77;;;0.90;99.90;;;;;;5094623;28;20052;-83
2022/12/10 07:51:06;;;;;;;91.88;23.70;;;0.90;99.90;;;;;;5094657;28;20399;-82
2022/12/10 07:53:32;;;;;;;135.50;24.48;;;0.90;99.90;;;;;;5095555;28;20089;-83
2022/12/10 07:55:57;;;;;;;121.63;24.07;;;0.90;99.90;;;;;;5077912;28;20130;-83
2022/12/10 07:58:23;;;;;;;183.37;27.60;;;0.90;99.90;;;;;;5094651;28;20044;-83
2022/12/10 08:00:49;;;;;;;110.77;24.77;;;0.90;99.90;;;;;;5099295;28;20123;-83
2022/12/10 08:03:15;;;;;;;150.83;26.47;;;1.30;99.90;;;;;;5098139;28;20439;-85
2022/12/10 08:05:41;;;;;;;144.53;26.60;;;0.90;99.90;;;;;;5114808;28;20122;-82
2022/12/10 08:08:06;;;;;;;103.87;24.53;;;0.90;99.90;;;;;;5114475;28;20059;-83
2022/12/10 08:10:36;;;;;;;193.77;25.87;;;0.90;99.90;;;;;;5114705;28;20403;-83
2022/12/10 08:13:02;;;;;;;138.32;25.85;;;0.90;99.90;;;;;;5115509;28;20412;-84
2022/12/10 08:15:28;;;;;;;159.27;25.00;;;0.90;99.90;;;;;;5131386;27;20054;-82
2022/12/10 08:17:54;;;;;;;114.23;24.60;;;0.80;99.90;;;;;;5114590;28;20483;-84
2022/12/10 08:20:20;;;;;;;148.65;26.10;;;0.90;99.90;;;;;;5097909;28;20048;-81
2022/12/10 08:22:46;;;;;;;105.53;24.83;;;0.90;99.90;;;;;;5114257;28;20042;-82
2022/12/10 08:25:12;;;;;;;202.37;25.27;;;1.00;99.90;;;;;;5115906;28;20073;-87
2022/12/10 08:27:37;;;;;;;92.13;24.93;;;0.80;99.90;;;;;;5080206;28;20043;-81
2022/12/10 08:30:04;;;;;;;137.60;25.77;;;0.80;99.90;;;;;;5110441;28;20043;-83
2022/12/10 08:32:30;;;;;;;100.75;24.38;;;0.80;99.90;;;;;;5103634;28;20080;-83
2022/12/10 08:34:56;;;;;;;96.77;24.97;;;0.80;99.90;;;;;;5109510;28;20082;-85
2022/12/10 08:37:21;;;;;;;201.00;26.70;;;0.80;99.90;;;;;;5115606;28;20131;-78
2022/12/10 08:39:47;;;;;;;120.23;25.63;;;0.80;99.90;;;;;;5115134;28;20472;-81
2022/12/10 08:42:13;;;;;;;89.60;23.13;;;0.80;99.90;;;;;;5115325;28;20051;-83
2022/12/10 08:44:38;;;;;;;131.30;24.37;;;0.80;99.90;;;;;;5113833;28;20127;-81
2022/12/10 08:47:04;;;;;;;121.50;23.50;;;0.80;99.90;;;;;;5114112;28;20082;-82
2022/12/10 08:49:30;;;;;;;104.37;23.70;;;0.90;99.90;;;;;;5113882;28;20035;-83
2022/12/10 08:51:56;;;;;;;152.93;24.23;;;0.80;99.90;;;;;;5114736;28;20285;-79
2022/12/10 08:54:21;;;;;;;74.90;22.77;;;0.80;99.90;;;;;;5113956;28;20544;-81
2022/12/10 08:56:47;;;;;;;114.60;26.53;;;0.90;99.90;;;;;;5113484;28;20048;-82
2022/12/10 08:59:13;;;;;;;94.07;23.80;;;0.90;99.90;;;;;;5114873;28;20499;-82
2022/12/10 09:01:39;;;;;;;102.17;23.77;;;0.90;99.90;;;;;;5096569;28;20150;-82
2022/12/10 09:04:05;;;;;;;122.83;24.87;;;1.00;99.90;;;;;;5113996;28;20054;-81
2022/12/10 09:06:31;;;;;;;124.97;23.57;;;0.90;99.90;;;;;;5114834;27;20051;-81
2022/12/10 09:08:56;;;;;;;82.78;23.13;;;0.90;99.90;;;;;;5114639;28;20044;-81
2022/12/10 09:11:26;;;;;;;154.03;23.03;;;0.90;99.90;;;;;;5114813;28;20043;-81
2022/12/10 09:13:53;;;;;;;94.60;22.27;;;0.90;99.90;;;;;;5114482;28;20134;-82
2022/12/10 09:16:19;;;;;;;87.93;23.33;;;0.90;99.90;;;;;;5114718;28;20079;-82
2022/12/10 09:18:44;;;;;;;97.43;23.53;;;0.80;99.90;;;;;;5114481;28;20090;-82
2022/12/10 09:21:14;;;;;;;88.60;22.20;;;0.80;99.90;;;;;;5114717;28;20048;-82
2022/12/10 09:23:41;;;;;;;92.80;22.33;;;0.90;99.90;;;;;;5114345;28;20046;-82
2022/12/10 09:26:10;;;;;;;138.18;22.77;;;0.90;99.90;;;;;;5115387;28;20079;-82
2022/12/10 09:28:37;;;;;;;79.28;23.10;;;0.90;99.90;;;;;;5113821;28;20098;-82
2022/12/10 09:31:04;;;;;;;76.22;22.02;;;0.80;99.90;;;;;;5114589;28;20079;-82
2022/12/10 09:33:31;;;;;;;85.30;22.70;;;0.90;99.90;;;;;;5114592;28;20389;-80
2022/12/10 09:35:57;;;;;;;126.57;25.42;;;0.90;99.90;;;;;;5114134;28;20079;-79
2022/12/10 09:38:22;;;;;;;92.60;23.83;;;0.90;99.90;;;;;;5113990;28;20090;-80
2022/12/10 09:41:04;;;;;;;94.40;25.30;;;0.90;99.90;;;;;;5113180;28;20040;-80
2022/12/10 09:43:56;;;;;;;97.05;25.05;;;0.90;99.90;;;;;;5114532;28;20047;-80
2022/12/10 09:46:48;;;;;;;53.10;23.17;;;0.80;99.90;;;;;;5114489;28;20048;-80
2022/12/10 09:49:17;;;;;;;82.05;24.88;;;0.90;99.90;;;;;;5113506;28;20055;-80
2022/12/10 09:51:42;;;;;;;78.68;25.60;;;0.80;99.90;;;;;;5113557;28;20484;-80
2022/12/10 09:54:32;;;;;;;80.77;24.57;;;0.90;99.90;;;;;;5114078;28;20100;-80
2022/12/10 09:56:59;;;;;;;114.15;25.58;;;0.90;99.90;;;;;;5113730;28;20119;-80
2022/12/10 09:59:33;;;;;;;104.95;30.70;;;0.90;99.90;;;;;;5112719;28;20127;-80
2022/12/10 10:02:16;;;;;;;119.25;36.97;;;0.90;99.90;;;;;;5112790;28;20055;-80
2022/12/10 10:04:42;;;;;;;114.25;23.73;;;0.90;99.90;;;;;;5113675;28;20052;-80
2022/12/10 10:07:21;;;;;;;91.37;23.77;;;0.90;99.90;;;;;;5113579;28;20074;-80
2022/12/10 10:09:47;;;;;;;85.65;30.20;;;1.00;99.90;;;;;;5113502;28;20047;-81
2022/12/10 10:12:14;;;;;;;225.40;41.07;;;1.00;99.90;;;;;;5113709;28;20054;-80
2022/12/10 10:14:42;;;;;;;102.10;23.55;;;1.00;99.90;;;;;;5113410;28;20543;-80
2022/12/10 10:17:45;;;;;;;67.80;23.50;;;1.00;99.90;;;;;;5112434;28;20441;-80
2022/12/10 10:20:12;;;;;;;68.78;25.08;;;1.00;99.90;;;;;;5105845;28;20048;-80
2022/12/10 10:22:38;;;;;;;81.45;22.27;;;1.10;99.90;;;;;;5112685;28;20103;-80
2022/12/10 10:25:08;;;;;;;87.90;24.77;;;1.10;99.90;;;;;;5113443;28;20403;-80
2022/12/10 10:27:34;;;;;;;85.72;22.95;;;1.20;99.90;;;;;;5113658;28;20148;-80
2022/12/10 10:30:03;;;;;;;63.07;21.10;;;1.20;99.90;;;;;;5113371;28;20426;-81
2022/12/10 10:32:35;;;;;;;122.53;22.80;;;1.20;99.90;;;;;;5112410;28;20384;-81
2022/12/10 10:35:02;;;;;;;138.60;23.55;;;1.20;99.90;;;;;;5113264;28;20055;-80
2022/12/10 10:37:31;;;;;;;72.53;20.50;;;1.20;99.90;;;;;;5113548;28;20546;-80
2022/12/10 10:39:58;;;;;;;59.80;21.80;;;1.30;99.90;;;;;;5115717;28;20451;-80
2022/12/10 10:42:35;;;;;;;113.40;23.65;;;1.30;99.90;;;;;;5117769;28;20059;-80
2022/12/10 10:45:22;;;;;;;72.22;20.83;;;1.30;99.90;;;;;;5117571;28;20403;-80
2022/12/10 10:48:05;;;;;;;68.60;21.13;;;1.20;99.90;;;;;;5091734;28;20052;-80
2022/12/10 10:50:35;;;;;;;89.20;22.25;;;1.20;99.90;;;;;;5117623;28;20043;-80
2022/12/10 10:53:01;;;;;;;91.13;22.80;;;1.30;99.90;;;;;;5116518;28;20055;-80
2022/12/10 10:55:35;;;;;;;64.80;20.47;;;1.30;99.90;;;;;;5117442;27;20395;-80
2022/12/10 10:58:01;;;;;;;73.78;22.42;;;1.20;99.90;;;;;;5117078;28;20087;-80
2022/12/10 11:00:27;;;;;;;81.40;21.03;;;1.20;99.90;;;;;;5117422;28;20075;-80
2022/12/10 11:02:52;;;;;;;88.83;22.13;;;1.20;99.90;;;;;;5117030;28;20451;-80
2022/12/10 11:05:27;;;;;;;72.73;22.87;;;1.20;99.90;;;;;;5116288;28;20126;-80
2022/12/10 11:08:17;;;;;;;72.70;21.67;;;1.30;99.90;;;;;;5116835;28;20052;-80
2022/12/10 11:11:11;;;;;;;81.32;21.05;;;1.20;99.90;;;;;;5116050;28;20059;-82
2022/12/10 11:13:37;;;;;;;68.55;20.95;;;1.20;99.90;;;;;;5116983;28;20047;-82
2022/12/10 11:16:18;;;;;;;78.47;23.17;;;1.30;99.90;;;;;;5115068;28;20515;-81
2022/12/10 11:19:04;;;;;;;44.88;21.75;;;1.20;99.90;;;;;;5115837;28;20380;-82
2022/12/10 11:21:30;;;;;;;;;;;1.20;99.90;;;;;;5114485;28;20081;-83
2022/12/10 11:23:57;;;;;;;80.03;22.27;;;1.20;99.90;;;;;;5106242;28;19978;-83
2022/12/10 11:26:55;;;;;;;46.10;21.05;;;1.30;99.90;;;;;;5107713;28;20510;-83
2022/12/10 11:29:42;;;;;;;66.45;22.70;;;1.30;99.90;;;;;;5087010;28;20047;-83
2022/12/10 11:32:17;;;;;;;58.10;21.92;;;1.30;99.90;;;;;;5105311;28;20483;-82
2022/12/10 11:35:04;;;;;;;54.47;22.15;;;1.30;99.90;;;;;;5106637;28;20094;-81
2022/12/10 11:37:39;;;;;;;50.28;21.80;;;1.30;99.90;;;;;;5105823;28;20054;-83
2022/12/10 11:40:11;;;;;;;56.03;22.60;;;1.40;99.90;;;;;;5105177;28;20127;-82
2022/12/10 11:42:46;;;;;;;47.55;21.65;;;1.40;99.90;;;;;;5102507;28;20044;-82
2022/12/10 11:46:00;;;;;;;58.83;22.90;;;1.40;99.90;;;;;;5101887;28;20075;-80
2022/12/10 11:48:44;;;;;;;60.55;24.55;;;1.40;99.90;;;;;;5061865;28;20051;-82
2022/12/10 11:51:22;;;;;;;53.65;24.88;;;1.40;99.90;;;;;;5085292;28;20056;-83
2022/12/10 11:54:14;;;;;;;49.13;23.15;;;1.40;99.90;;;;;;5091237;28;20053;-81
2022/12/10 11:57:29;;;;;;;52.50;23.60;;;1.40;99.90;;;;;;5075712;28;20079;-83
2022/12/10 12:00:04;;;;;;;49.95;22.83;;;1.40;99.90;;;;;;5071706;28;20049;-81
2022/12/10 12:02:39;;;;;;;57.42;25.75;;;1.40;99.90;;;;;;5074517;28;20052;-81
2022/12/10 12:05:15;;;;;;;55.05;24.27;;;1.50;99.90;;;;;;5074221;28;20050;-84
2022/12/10 12:07:44;;;;;;;46.58;22.80;;;1.50;99.90;;;;;;5075418;28;20082;-81
2022/12/10 12:10:32;;;;;;;49.28;23.90;;;1.50;99.90;;;;;;5074919;28;20056;-80
2022/12/10 12:13:09;;;;;;;49.15;24.08;;;1.50;99.90;;;;;;5075034;28;20048;-80
2022/12/10 12:15:49;;;;;;;49.58;25.65;;;1.50;99.90;;;;;;5075218;28;20059;-81
2022/12/10 12:18:17;;;;;;;47.15;24.23;;;1.70;99.90;;;;;;5090628;28;20094;-79
2022/12/10 12:20:59;;;;;;;47.90;23.70;;;1.50;99.90;;;;;;5074094;28;20095;-83
2022/12/10 12:23:43;;;;;;;58.00;25.60;;;1.50;99.90;;;;;;5075043;28;20041;-85
2022/12/10 12:26:16;;;;;;;49.88;25.23;;;1.50;99.90;;;;;;5073612;28;20048;-84
2022/12/10 12:29:10;;;;;;;54.22;25.95;;;1.50;99.90;;;;;;5076870;28;20051;-80
2022/12/10 12:31:40;;;;;;;48.13;25.17;;;1.60;99.90;;;;;;5086647;28;20101;-80
2022/12/10 12:34:29;;;;;;;55.67;25.60;;;1.50;99.90;;;;;;5096208;28;20052;-79
2022/12/10 12:36:55;;;;;;;44.13;23.58;;;1.60;99.90;;;;;;5094203;28;20101;-79
2022/12/10 12:39:43;;;;;;;49.78;24.27;;;1.60;99.90;;;;;;5094517;28;20147;-79
2022/12/10 12:42:38;;;;;;;53.45;25.88;;;1.60;99.90;;;;;;5094647;28;20480;-79
2022/12/10 12:45:18;;;;;;;52.17;26.08;;;1.60;99.90;;;;;;5094915;28;20108;-79
2022/12/10 12:48:14;;;;;;;52.97;24.33;;;1.60;99.90;;;;;;5094819;28;20050;-79
2022/12/10 12:51:10;;;;;;;51.45;24.92;;;1.60;99.90;;;;;;5093603;28;20048;-85
2022/12/10 12:53:36;;;;;;;38.08;20.40;;;1.60;99.90;;;;;;5094818;28;20055;-82
2022/12/10 12:56:23;;;;;;;48.53;23.73;;;1.70;99.90;;;;;;5094675;28;20181;-82
2022/12/10 12:59:09;;;;;;;56.35;25.40;;;1.70;99.90;;;;;;5094735;28;20333;-81